Time;durP1;ratioP1;P1;durP2;ratioP2;P2;SDS_P1;SDS_P2;PMS_P1;PMS_P2;Temp;Humidity;BMP_temperature;BMP_pressure;BME280_temperature;BME280_humidity;BME280_pressure;Samples;Min_cycle;Max_cycle;Signal;HPM_P1;HPM_P2
2022/05/09 00:02:13;;;;;;;6.93;3.92;;;13.90;99.90;;;;;;5004084;28;20463;-71
2022/05/09 00:04:38;;;;;;;9.80;5.03;;;13.90;99.90;;;;;;5010594;28;20026;-71
2022/05/09 00:07:05;;;;;;;8.48;4.18;;;13.80;99.90;;;;;;5005377;28;20045;-71
2022/05/09 00:09:31;;;;;;;9.55;4.95;;;13.80;99.90;;;;;;5005339;28;20117;-71
2022/05/09 00:11:57;;;;;;;5.97;3.88;;;13.80;99.90;;;;;;4999991;28;20507;-71
2022/05/09 00:14:23;;;;;;;6.32;3.80;;;13.80;99.90;;;;;;5012855;28;20511;-71
2022/05/09 00:16:51;;;;;;;7.80;4.30;;;13.80;99.90;;;;;;5014361;28;20056;-71
2022/05/09 00:19:20;;;;;;;8.25;4.38;;;13.80;99.90;;;;;;5034625;28;20035;-71
2022/05/09 00:21:47;;;;;;;6.35;3.60;;;13.90;99.90;;;;;;5008163;28;20619;-71
2022/05/09 00:24:15;;;;;;;6.00;4.15;;;13.90;99.90;;;;;;4993830;28;20030;-71
2022/05/09 00:26:48;;;;;;;9.27;4.65;;;14.00;99.90;;;;;;5026641;28;20520;-71
2022/05/09 00:29:15;;;;;;;6.07;4.07;;;13.90;99.90;;;;;;4996689;28;20038;-71
2022/05/09 00:31:43;;;;;;;7.38;4.20;;;13.70;99.90;;;;;;4996568;28;20050;-71
2022/05/09 00:34:17;;;;;;;8.45;4.10;;;13.70;99.90;;;;;;5012684;28;20041;-71
2022/05/09 00:36:43;;;;;;;8.40;4.63;;;13.70;99.90;;;;;;5003616;28;20041;-71
2022/05/09 00:39:09;;;;;;;6.80;4.20;;;13.70;99.90;;;;;;5012085;28;20022;-71
2022/05/09 00:41:37;;;;;;;8.90;4.82;;;13.70;99.90;;;;;;4999399;28;20391;-71
2022/05/09 00:44:09;;;;;;;12.05;5.50;;;13.80;99.90;;;;;;5019497;28;20057;-70
2022/05/09 00:46:36;;;;;;;7.43;4.75;;;13.80;99.90;;;;;;5012278;28;20029;-71
2022/05/09 00:49:23;;;;;;;10.80;4.95;;;13.70;99.90;;;;;;5010462;28;20031;-71
2022/05/09 00:51:58;;;;;;;7.50;4.10;;;13.80;99.90;;;;;;5007479;28;20037;-71
2022/05/09 00:54:26;;;;;;;6.95;4.50;;;13.80;99.90;;;;;;4999346;28;20062;-71
2022/05/09 00:57:00;;;;;;;6.50;3.90;;;13.90;99.90;;;;;;5005429;28;20033;-71
2022/05/09 00:59:32;;;;;;;7.47;4.20;;;13.90;99.90;;;;;;5008285;28;20392;-71
2022/05/09 01:01:58;;;;;;;9.93;4.50;;;13.90;99.90;;;;;;5001699;28;20025;-71
2022/05/09 01:04:27;;;;;;;8.10;4.80;;;13.80;99.90;;;;;;5006654;28;20117;-71
2022/05/09 01:06:54;;;;;;;10.65;3.80;;;13.70;99.90;;;;;;5009084;28;20109;-71
2022/05/09 01:09:20;;;;;;;7.28;4.88;;;13.60;99.90;;;;;;5008721;28;20041;-71
2022/05/09 01:11:48;;;;;;;7.68;4.88;;;13.50;99.90;;;;;;5007848;28;20038;-70
2022/05/09 01:14:20;;;;;;;7.47;4.63;;;13.60;99.90;;;;;;5001969;28;20508;-71
2022/05/09 01:16:46;;;;;;;10.73;4.88;;;13.70;99.90;;;;;;5010571;28;20991;-71
2022/05/09 01:19:29;;;;;;;8.20;4.80;;;13.60;99.90;;;;;;5004730;28;20173;-71
2022/05/09 01:21:56;;;;;;;9.45;4.03;;;13.50;99.90;;;;;;5004370;28;20029;-71
2022/05/09 01:24:23;;;;;;;6.63;4.22;;;13.60;99.90;;;;;;5001144;28;20029;-71
2022/05/09 01:26:49;;;;;;;6.00;4.05;;;13.70;99.90;;;;;;5006670;28;20030;-71
2022/05/09 01:29:40;;;;;;;7.35;4.35;;;13.70;99.90;;;;;;5003203;28;20034;-71
2022/05/09 01:32:10;;;;;;;7.75;4.10;;;13.60;99.90;;;;;;4999478;28;20476;-71
2022/05/09 01:34:40;;;;;;;8.90;4.10;;;13.60;99.90;;;;;;5005954;28;20040;-71
2022/05/09 01:37:08;;;;;;;9.70;4.28;;;13.60;99.90;;;;;;5010194;28;20485;-71
2022/05/09 01:39:36;;;;;;;6.03;3.78;;;13.50;99.90;;;;;;5007379;28;20565;-71
2022/05/09 01:42:07;;;;;;;6.25;4.47;;;13.50;99.90;;;;;;5007692;28;20112;-71
2022/05/09 01:44:33;;;;;;;6.47;4.70;;;13.60;99.90;;;;;;5002457;28;20504;-71
2022/05/09 01:49:43;;;;;;;7.90;4.55;;;13.50;99.90;;;;;;5007420;28;21745;-71
2022/05/09 01:52:14;;;;;;;7.97;4.32;;;13.60;99.90;;;;;;5006123;28;20026;-71
2022/05/09 01:54:41;;;;;;;6.72;4.50;;;13.80;99.90;;;;;;4998938;28;20038;-71
2022/05/09 01:57:07;;;;;;;6.20;4.68;;;13.70;99.90;;;;;;5008430;28;20018;-71
2022/05/09 01:59:33;;;;;;;6.38;4.00;;;13.50;99.90;;;;;;5009752;28;20522;-71
2022/05/09 02:02:03;;;;;;;8.27;4.35;;;13.50;99.90;;;;;;5000173;28;20039;-71
2022/05/09 02:04:30;;;;;;;6.07;4.43;;;13.50;99.90;;;;;;4991514;28;20081;-71
2022/05/09 02:06:57;;;;;;;7.50;4.40;;;13.60;99.90;;;;;;5003466;28;20148;-71
2022/05/09 02:09:22;;;;;;;6.28;4.65;;;13.60;99.90;;;;;;5007350;28;20034;-71
2022/05/09 02:11:48;;;;;;;7.97;4.47;;;13.60;99.90;;;;;;4998024;28;20051;-71
2022/05/09 02:14:14;;;;;;;11.02;4.85;;;13.70;99.90;;;;;;5007813;28;20491;-71
2022/05/09 02:16:40;;;;;;;6.03;4.13;;;13.60;99.90;;;;;;5000752;28;20033;-71
2022/05/09 02:19:06;;;;;;;6.50;4.55;;;13.60;99.90;;;;;;5006094;28;20033;-71
2022/05/09 02:21:33;;;;;;;6.55;4.32;;;13.60;99.90;;;;;;5020213;28;20468;-71
2022/05/09 02:24:00;;;;;;;12.55;4.50;;;13.60;99.90;;;;;;4991707;28;20031;-71
2022/05/09 02:26:25;;;;;;;9.75;4.53;;;13.60;99.90;;;;;;5003694;28;20558;-71
2022/05/09 02:28:51;;;;;;;8.30;4.30;;;13.60;99.90;;;;;;5002471;28;20030;-71
2022/05/09 02:31:20;;;;;;;7.18;3.97;;;13.60;99.90;;;;;;4993963;28;20038;-70
2022/05/09 02:33:46;;;;;;;6.25;4.18;;;13.60;99.90;;;;;;5003514;28;20644;-71
2022/05/09 02:36:11;;;;;;;6.43;4.45;;;13.60;99.90;;;;;;5006304;28;20080;-71
2022/05/09 02:38:38;;;;;;;7.85;4.47;;;13.60;99.90;;;;;;5004686;28;20046;-71
2022/05/09 02:41:04;;;;;;;9.18;4.30;;;13.50;99.90;;;;;;4998523;28;20038;-71
2022/05/09 02:43:31;;;;;;;7.30;4.55;;;13.50;99.90;;;;;;4994821;28;20053;-71
2022/05/09 02:46:03;;;;;;;7.22;4.68;;;13.50;99.90;;;;;;4999195;28;20076;-71
2022/05/09 02:48:30;;;;;;;6.57;4.18;;;13.50;99.90;;;;;;4997533;28;20038;-71
2022/05/09 02:50:55;;;;;;;6.63;4.40;;;13.50;99.90;;;;;;5006386;28;20473;-71
2022/05/09 02:53:21;;;;;;;6.05;4.07;;;13.50;99.90;;;;;;4992765;28;20033;-71
2022/05/09 02:55:47;;;;;;;6.57;4.28;;;13.60;99.90;;;;;;5003545;28;20033;-71
2022/05/09 02:58:13;;;;;;;8.55;4.20;;;13.70;99.90;;;;;;5002184;28;20030;-71
2022/05/09 03:00:39;;;;;;;7.13;4.32;;;13.80;99.90;;;;;;5005755;28;20038;-69
2022/05/09 03:05:49;;;;;;;8.73;4.25;;;13.70;99.90;;;;;;5003443;28;20107;-69
2022/05/09 03:08:17;;;;;;;9.38;4.28;;;13.60;99.90;;;;;;5000182;28;20469;-69
2022/05/09 03:10:44;;;;;;;7.05;4.82;;;13.60;99.90;;;;;;4992934;28;20049;-69
2022/05/09 03:13:15;;;;;;;10.00;4.10;;;13.40;99.90;;;;;;4996875;28;20061;-69
2022/05/09 03:15:43;;;;;;;6.18;4.03;;;13.30;99.90;;;;;;4995077;28;20045;-70
2022/05/09 03:18:11;;;;;;;6.13;4.30;;;13.10;99.90;;;;;;4990104;28;20030;-69
2022/05/09 03:20:37;;;;;;;6.47;4.60;;;13.10;99.90;;;;;;5002202;28;20463;-69
2022/05/09 03:23:04;;;;;;;8.80;4.28;;;13.10;99.90;;;;;;4993558;28;20065;-69
2022/05/09 03:25:31;;;;;;;7.30;4.57;;;13.10;99.90;;;;;;5004825;28;20037;-69
2022/05/09 03:27:57;;;;;;;7.20;4.70;;;13.10;99.90;;;;;;4997466;28;20034;-69
2022/05/09 03:30:24;;;;;;;6.38;4.18;;;13.00;99.90;;;;;;4995133;28;20423;-69
2022/05/09 03:32:52;;;;;;;6.55;3.92;;;13.10;99.90;;;;;;4995902;28;20034;-69
2022/05/09 03:35:18;;;;;;;11.07;4.85;;;13.10;99.90;;;;;;4993729;28;20474;-69
2022/05/09 03:37:44;;;;;;;8.55;4.03;;;13.20;99.90;;;;;;4992780;28;20037;-70
2022/05/09 03:40:11;;;;;;;7.82;5.05;;;13.20;99.90;;;;;;4980096;28;20035;-71
2022/05/09 03:42:37;;;;;;;6.97;4.07;;;13.20;99.90;;;;;;4992044;28;20030;-69
2022/05/09 03:45:03;;;;;;;6.03;4.25;;;13.10;99.90;;;;;;5006003;28;20037;-71
2022/05/09 03:47:29;;;;;;;6.68;4.00;;;13.00;99.90;;;;;;4998079;28;20049;-69
2022/05/09 03:49:57;;;;;;;7.22;3.80;;;13.00;99.90;;;;;;5006228;28;20026;-69
2022/05/09 03:52:23;;;;;;;9.95;4.55;;;13.10;99.90;;;;;;5003669;28;20062;-69
2022/05/09 03:54:49;;;;;;;7.57;3.90;;;13.10;99.90;;;;;;5002761;28;20109;-69
2022/05/09 03:57:15;;;;;;;8.02;4.50;;;12.90;99.90;;;;;;5008571;28;20037;-69
2022/05/09 03:59:41;;;;;;;8.52;4.80;;;12.90;99.90;;;;;;5005928;28;20052;-69
2022/05/09 04:02:06;;;;;;;8.32;5.03;;;12.70;99.90;;;;;;5007192;28;20045;-69
2022/05/09 04:04:32;;;;;;;8.93;4.60;;;12.50;99.90;;;;;;5001870;28;20034;-69
2022/05/09 04:06:58;;;;;;;8.23;3.95;;;12.40;99.90;;;;;;5004689;28;20491;-69
2022/05/09 04:09:24;;;;;;;8.73;4.60;;;12.20;99.90;;;;;;5006836;28;20038;-70
2022/05/09 04:11:50;;;;;;;8.02;4.35;;;12.10;99.90;;;;;;5001969;28;20060;-69
2022/05/09 04:16:49;;;;;;;8.57;4.90;;;12.10;99.90;;;;;;5002017;28;20385;-69
2022/05/09 04:17:03;;;;;;;7.85;4.97;;;12.10;99.90;;;;;;5001328;28;20128;-69
2022/05/09 04:19:29;;;;;;;6.97;4.85;;;12.20;99.90;;;;;;5006841;28;20072;-69
2022/05/09 04:21:54;;;;;;;7.13;5.22;;;12.40;99.90;;;;;;5000363;28;20057;-69
2022/05/09 04:24:20;;;;;;;7.57;4.68;;;12.70;99.90;;;;;;5005949;28;20042;-69
2022/05/09 04:26:46;;;;;;;9.55;5.13;;;12.40;99.90;;;;;;5006899;28;20080;-69
2022/05/09 04:29:11;;;;;;;8.75;4.45;;;12.40;99.90;;;;;;5005390;28;20042;-69
2022/05/09 04:31:37;;;;;;;9.15;4.55;;;12.60;99.90;;;;;;4998539;28;20532;-69
2022/05/09 04:34:03;;;;;;;6.68;3.95;;;12.70;99.90;;;;;;5005767;28;20061;-69
2022/05/09 04:36:29;;;;;;;6.30;4.20;;;12.80;99.90;;;;;;4994101;28;20026;-69
2022/05/09 04:38:55;;;;;;;6.10;4.22;;;12.80;99.90;;;;;;5007871;28;20026;-69
2022/05/09 04:41:22;;;;;;;7.15;4.43;;;12.80;99.90;;;;;;5000926;28;20027;-69
2022/05/09 04:43:48;;;;;;;5.90;4.05;;;12.80;99.90;;;;;;5005690;28;20119;-69
2022/05/09 04:46:14;;;;;;;6.90;4.82;;;12.70;99.90;;;;;;5003626;28;20057;-69
2022/05/09 04:48:42;;;;;;;7.93;4.30;;;12.80;99.90;;;;;;5000335;28;20029;-69
2022/05/09 04:51:07;;;;;;;8.75;4.32;;;12.70;99.90;;;;;;5004801;28;20033;-69
2022/05/09 04:53:33;;;;;;;6.95;4.22;;;12.70;99.90;;;;;;4999306;28;20037;-69
2022/05/09 04:55:59;;;;;;;8.50;4.25;;;12.70;99.90;;;;;;4998501;28;20026;-69
2022/05/09 04:58:26;;;;;;;7.65;4.22;;;12.60;99.90;;;;;;5015770;28;20041;-69
2022/05/09 05:00:52;;;;;;;6.32;3.97;;;12.60;99.90;;;;;;4998225;28;20030;-69
2022/05/09 05:03:18;;;;;;;7.20;4.82;;;12.50;99.90;;;;;;5005244;28;20046;-69
2022/05/09 05:05:45;;;;;;;10.68;4.80;;;12.40;99.90;;;;;;4993657;28;20111;-69
2022/05/09 05:08:14;;;;;;;6.20;4.00;;;12.60;99.90;;;;;;5005415;28;20113;-69
2022/05/09 05:10:41;;;;;;;7.00;4.32;;;12.70;99.90;;;;;;4999579;28;20092;-69
2022/05/09 05:13:07;;;;;;;7.22;4.38;;;12.80;99.90;;;;;;5000157;28;20057;-69
2022/05/09 05:15:32;;;;;;;7.03;4.60;;;12.70;99.90;;;;;;4999084;28;20057;-69
2022/05/09 05:17:58;;;;;;;6.43;4.22;;;12.70;99.90;;;;;;4987588;28;20096;-69
2022/05/09 05:20:24;;;;;;;6.90;3.88;;;12.70;99.90;;;;;;5000350;28;20269;-69
2022/05/09 05:22:50;;;;;;;7.57;3.65;;;12.90;99.90;;;;;;4983445;28;20030;-69
2022/05/09 05:25:19;;;;;;;5.88;4.03;;;13.00;99.90;;;;;;4981756;28;20648;-69
2022/05/09 05:27:47;;;;;;;9.13;4.22;;;12.90;99.90;;;;;;4995896;28;20066;-70
2022/05/09 05:30:13;;;;;;;6.78;3.90;;;12.90;99.90;;;;;;5002871;28;20025;-70
2022/05/09 05:32:41;;;;;;;21.10;5.20;;;13.00;99.90;;;;;;5007919;28;20064;-69
2022/05/09 05:35:10;;;;;;;18.88;4.93;;;13.00;99.90;;;;;;4987135;28;20034;-69
2022/05/09 05:37:36;;;;;;;13.45;4.70;;;13.10;99.90;;;;;;5005228;28;20061;-69
2022/05/09 05:40:01;;;;;;;12.50;5.35;;;13.10;99.90;;;;;;5004422;28;20169;-69
2022/05/09 05:42:28;;;;;;;6.93;4.07;;;13.10;99.90;;;;;;5004574;28;20041;-69
2022/05/09 05:44:54;;;;;;;6.95;4.00;;;13.00;99.90;;;;;;5000451;28;20049;-69
2022/05/09 05:47:21;;;;;;;7.18;4.45;;;13.10;99.90;;;;;;5005084;28;20552;-69
2022/05/09 05:49:47;;;;;;;8.00;4.38;;;13.20;99.90;;;;;;4992631;28;20032;-69
2022/05/09 05:52:14;;;;;;;6.55;4.45;;;13.30;99.90;;;;;;5000643;28;20046;-69
2022/05/09 05:54:42;;;;;;;7.85;4.53;;;13.40;99.90;;;;;;4992459;28;20121;-70
2022/05/09 05:57:15;;;;;;;8.70;4.55;;;13.40;99.90;;;;;;5004796;28;20091;-69
2022/05/09 05:59:40;;;;;;;6.43;4.10;;;13.50;99.90;;;;;;5003517;28;20034;-69
2022/05/09 06:02:06;;;;;;;8.13;4.28;;;13.40;99.90;;;;;;5004466;28;20117;-69
2022/05/09 06:04:32;;;;;;;7.05;4.80;;;13.50;99.90;;;;;;5003085;28;20540;-69
2022/05/09 06:06:57;;;;;;;6.35;3.90;;;13.50;99.90;;;;;;5004348;28;20030;-69
2022/05/09 06:09:23;;;;;;;10.50;4.82;;;13.60;99.90;;;;;;5004336;28;20041;-70
2022/05/09 06:11:48;;;;;;;6.05;3.85;;;13.60;99.90;;;;;;5004241;28;20357;-69
2022/05/09 06:14:14;;;;;;;7.30;4.35;;;13.80;99.90;;;;;;5004560;28;20057;-69
2022/05/09 06:16:40;;;;;;;6.15;3.55;;;13.90;99.90;;;;;;5004579;28;20037;-69
2022/05/09 06:19:08;;;;;;;7.47;4.60;;;14.00;99.90;;;;;;5009637;28;20439;-70
2022/05/09 06:21:37;;;;;;;9.00;4.43;;;14.00;99.90;;;;;;4999050;28;20065;-69
2022/05/09 06:24:07;;;;;;;5.97;3.63;;;14.10;99.90;;;;;;5003571;28;20022;-69
2022/05/09 06:26:34;;;;;;;6.93;4.43;;;14.20;99.90;;;;;;5000890;28;20418;-69
2022/05/09 06:29:00;;;;;;;7.07;3.60;;;14.20;99.90;;;;;;5003111;28;20388;-69
2022/05/09 06:31:26;;;;;;;9.50;4.20;;;14.20;99.90;;;;;;5003083;28;20038;-69
2022/05/09 06:33:52;;;;;;;6.70;3.85;;;14.50;99.90;;;;;;5003093;28;20622;-70
2022/05/09 06:36:17;;;;;;;6.07;3.88;;;14.60;99.90;;;;;;5003079;28;20396;-70
2022/05/09 06:38:43;;;;;;;10.43;4.25;;;14.70;99.90;;;;;;5002089;28;20498;-70
2022/05/09 06:41:10;;;;;;;6.00;4.03;;;14.70;99.90;;;;;;5003362;28;20481;-70
2022/05/09 06:43:36;;;;;;;7.47;3.75;;;14.60;99.90;;;;;;4995147;28;20037;-70
2022/05/09 06:46:02;;;;;;;8.55;4.78;;;14.60;99.90;;;;;;5003631;28;20026;-69
2022/05/09 06:48:28;;;;;;;6.03;4.00;;;14.70;99.90;;;;;;4991348;28;20034;-70
2022/05/09 06:50:54;;;;;;;7.75;4.15;;;14.70;99.90;;;;;;5003170;28;20480;-70
2022/05/09 06:53:20;;;;;;;7.05;3.97;;;14.90;99.90;;;;;;5002679;28;20072;-70
2022/05/09 06:55:47;;;;;;;6.47;3.53;;;15.00;99.90;;;;;;4996565;28;20034;-69
2022/05/09 06:58:22;;;;;;;5.68;4.00;;;15.10;99.90;;;;;;5002937;28;20042;-70
2022/05/09 07:00:47;;;;;;;;;;;15.50;99.90;;;;;;5003483;28;20539;-69
2022/05/09 07:03:14;;;;;;;9.18;4.03;;;16.00;99.90;;;;;;5002555;28;20484;-70
2022/05/09 07:05:43;;;;;;;5.60;3.67;;;16.20;99.90;;;;;;5003049;28;20034;-70
2022/05/09 07:08:09;;;;;;;5.47;3.67;;;16.70;99.90;;;;;;5002195;28;20030;-70
2022/05/09 07:10:36;;;;;;;5.60;3.35;;;16.60;99.90;;;;;;5006866;28;20037;-70
2022/05/09 07:13:04;;;;;;;6.25;4.05;;;17.50;99.90;;;;;;5003139;28;20029;-70
2022/05/09 07:15:31;;;;;;;6.43;4.30;;;18.10;99.90;;;;;;5003718;28;20029;-69
2022/05/09 07:17:58;;;;;;;6.32;4.15;;;19.10;99.90;;;;;;5004656;28;20030;-68
2022/05/09 07:20:25;;;;;;;8.25;4.15;;;20.90;97.90;;;;;;5006955;28;20094;-68
2022/05/09 07:22:57;;;;;;;7.15;3.30;;;21.40;96.40;;;;;;5006533;28;20448;-68
2022/05/09 07:25:24;;;;;;;4.45;2.88;;;21.40;96.40;;;;;;5007092;28;20380;-68
2022/05/09 07:27:50;;;;;;;5.25;3.08;;;20.80;95.70;;;;;;5005382;28;20033;-68
2022/05/09 07:30:19;;;;;;;7.18;3.17;;;19.70;96.40;;;;;;5006846;28;20530;-68
2022/05/09 07:32:45;;;;;;;4.72;3.10;;;19.00;97.70;;;;;;5006003;28;20124;-68
2022/05/09 07:35:13;;;;;;;7.40;3.50;;;19.00;98.30;;;;;;4995499;28;20057;-68
2022/05/09 07:37:40;;;;;;;6.75;3.67;;;18.80;98.50;;;;;;4998318;28;20105;-67
2022/05/09 07:40:07;;;;;;;8.52;4.20;;;18.70;97.80;;;;;;4996073;28;20076;-68
2022/05/09 07:42:34;;;;;;;39.58;9.88;;;19.60;98.10;;;;;;5013613;28;20029;-68
2022/05/09 07:45:01;;;;;;;16.15;4.63;;;20.30;96.60;;;;;;5018744;28;20382;-67
2022/05/09 07:47:27;;;;;;;9.23;4.47;;;19.90;96.80;;;;;;5006950;28;20037;-69
2022/05/09 07:49:53;;;;;;;5.25;3.50;;;20.20;97.40;;;;;;5006440;28;20032;-69
2022/05/09 07:52:19;;;;;;;6.07;3.15;;;19.60;97.10;;;;;;5006557;28;20456;-69
2022/05/09 07:54:46;;;;;;;6.00;2.72;;;19.10;97.50;;;;;;4998224;28;20034;-69
2022/05/09 07:57:13;;;;;;;5.93;3.13;;;18.60;97.60;;;;;;5014603;28;20149;-69
2022/05/09 07:59:39;;;;;;;6.30;3.55;;;18.40;98.10;;;;;;5012039;28;20076;-69
2022/05/09 08:02:04;;;;;;;6.57;3.45;;;18.30;98.70;;;;;;5020395;28;20049;-69
2022/05/09 08:04:30;;;;;;;6.40;3.72;;;18.10;99.70;;;;;;5006319;28;20030;-69
2022/05/09 08:06:56;;;;;;;5.80;3.30;;;18.40;99.70;;;;;;5006114;28;20492;-69
2022/05/09 08:09:21;;;;;;;9.25;4.07;;;18.80;99.90;;;;;;5007409;28;20037;-69
2022/05/09 08:11:47;;;;;;;6.80;3.88;;;20.30;96.40;;;;;;5005721;28;20496;-69
2022/05/09 08:14:13;;;;;;;7.47;3.35;;;21.40;94.80;;;;;;5005158;28;20037;-69
2022/05/09 08:16:40;;;;;;;5.82;3.50;;;21.60;94.30;;;;;;5024208;28;20033;-69
2022/05/09 08:19:05;;;;;;;5.97;3.25;;;21.80;94.30;;;;;;5016530;28;20044;-69
2022/05/09 08:21:31;;;;;;;7.10;2.85;;;22.00;94.30;;;;;;5003674;28;20038;-69
2022/05/09 08:23:58;;;;;;;4.05;2.90;;;21.80;94.00;;;;;;5006829;28;20022;-69
2022/05/09 08:26:24;;;;;;;9.32;4.30;;;21.70;93.60;;;;;;5005993;28;20125;-69
2022/05/09 08:28:54;;;;;;;5.30;2.70;;;21.30;94.60;;;;;;5004738;28;20824;-69
2022/05/09 08:31:21;;;;;;;5.45;3.55;;;21.30;95.10;;;;;;5005408;28;20080;-69
2022/05/09 08:33:49;;;;;;;5.65;3.33;;;20.60;95.60;;;;;;5008034;28;20141;-69
2022/05/09 08:37:00;;;;;;;6.45;3.65;;;20.70;96.30;;;;;;5008741;28;20065;-70
2022/05/09 08:39:02;;;;;;;6.10;3.20;;;20.30;96.70;;;;;;5016021;28;20038;-69
2022/05/09 08:41:47;;;;;;;7.65;3.35;;;20.10;97.10;;;;;;5007997;28;20065;-69
2022/05/09 08:44:35;;;;;;;4.90;3.15;;;20.00;97.40;;;;;;5009257;28;20031;-69
2022/05/09 08:47:13;;;;;;;6.03;3.25;;;19.70;97.80;;;;;;5012625;28;20034;-69
2022/05/09 08:49:52;;;;;;;5.70;3.15;;;19.90;97.60;;;;;;5023494;28;20060;-69
2022/05/09 08:52:23;;;;;;;6.47;3.83;;;19.90;97.20;;;;;;5026585;28;20422;-69
2022/05/09 08:54:51;;;;;;;7.07;3.38;;;20.20;97.10;;;;;;5005702;28;20120;-69
2022/05/09 08:57:22;;;;;;;5.20;3.38;;;20.10;97.20;;;;;;5005539;28;20064;-70
2022/05/09 09:00:00;;;;;;;6.38;3.47;;;20.00;96.40;;;;;;5006847;28;20034;-69
2022/05/09 09:03:13;;;;;;;5.70;3.72;;;20.10;96.90;;;;;;5008680;28;20049;-69
2022/05/09 09:05:42;;;;;;;6.43;3.25;;;20.20;97.20;;;;;;4976178;28;20038;-69
2022/05/09 09:08:11;;;;;;;7.60;3.78;;;20.30;96.50;;;;;;5019525;28;20128;-70
2022/05/09 09:10:43;;;;;;;5.75;3.35;;;20.20;96.90;;;;;;5015550;28;20056;-69
2022/05/09 09:13:34;;;;;;;7.70;3.22;;;20.50;96.60;;;;;;5007767;28;20092;-69
2022/05/09 09:16:31;;;;;;;5.57;3.33;;;20.50;96.00;;;;;;5005107;28;20042;-69
2022/05/09 09:19:32;;;;;;;7.53;4.10;;;20.20;96.50;;;;;;5008158;28;20041;-69
2022/05/09 09:22:19;;;;;;;10.38;3.80;;;20.30;96.80;;;;;;5017938;28;20136;-69
2022/05/09 09:25:00;;;;;;;10.45;3.67;;;20.70;96.10;;;;;;5025781;28;20519;-69
2022/05/09 09:27:45;;;;;;;8.20;3.28;;;20.80;95.50;;;;;;5001864;28;20404;-69
2022/05/09 09:30:15;;;;;;;5.03;3.25;;;21.10;95.50;;;;;;5005178;28;20030;-69
2022/05/09 09:32:43;;;;;;;5.90;3.65;;;21.20;94.70;;;;;;5004212;28;20038;-69
2022/05/09 09:35:51;;;;;;;5.90;3.95;;;21.30;94.50;;;;;;5013262;28;20048;-70
2022/05/09 09:38:31;;;;;;;4.75;2.97;;;21.20;95.20;;;;;;4994106;28;20038;-71
2022/05/09 09:41:13;;;;;;;5.60;3.15;;;20.90;95.10;;;;;;5010741;28;20061;-69
2022/05/09 09:43:40;;;;;;;6.00;3.65;;;20.60;96.20;;;;;;4998402;28;20042;-70
2022/05/09 09:46:07;;;;;;;6.38;3.30;;;20.30;96.90;;;;;;5002119;28;20050;-69
2022/05/09 09:48:34;;;;;;;7.40;4.18;;;20.30;97.30;;;;;;5007817;28;20483;-70
2022/05/09 09:51:06;;;;;;;5.03;3.60;;;20.40;97.30;;;;;;5008157;28;20034;-70
2022/05/09 09:53:52;;;;;;;7.93;4.20;;;20.40;97.10;;;;;;5007474;28;20527;-70
2022/05/09 09:56:20;;;;;;;8.05;3.85;;;20.30;96.60;;;;;;5006969;28;20126;-70
2022/05/09 09:58:48;;;;;;;5.78;3.17;;;20.20;97.10;;;;;;5007509;28;20137;-70
2022/05/09 10:01:24;;;;;;;9.65;3.88;;;20.10;97.00;;;;;;5006071;28;20048;-70
2022/05/09 10:04:33;;;;;;;7.55;4.57;;;20.20;97.50;;;;;;5007178;28;20076;-70
2022/05/09 10:07:16;;;;;;;4.50;2.90;;;20.30;97.60;;;;;;5002526;28;20376;-69
2022/05/09 10:10:01;;;;;;;6.47;3.63;;;20.10;97.40;;;;;;5006636;28;20060;-70
2022/05/09 10:12:29;;;;;;;7.35;3.50;;;20.20;97.50;;;;;;5007279;28;20042;-69
2022/05/09 10:14:58;;;;;;;10.00;3.53;;;20.20;97.60;;;;;;5007081;28;20038;-70
2022/05/09 10:17:32;;;;;;;7.15;3.42;;;20.20;97.30;;;;;;5007055;28;20037;-69
2022/05/09 10:20:00;;;;;;;6.43;3.10;;;20.40;97.10;;;;;;5005334;28;20388;-70
2022/05/09 10:25:30;;;;;;;5.47;4.05;;;20.20;97.60;;;;;;5003855;28;20045;-69
2022/05/09 10:28:13;;;;;;;7.18;3.90;;;20.30;97.30;;;;;;5021877;28;20095;-70
2022/05/09 10:30:42;;;;;;;6.55;4.15;;;20.50;97.30;;;;;;5026818;28;20044;-70
2022/05/09 10:33:31;;;;;;;6.45;3.53;;;20.60;97.80;;;;;;5004608;28;20057;-70
2022/05/09 10:36:01;;;;;;;5.93;4.00;;;20.60;97.50;;;;;;4996224;28;20514;-69
2022/05/09 10:38:52;;;;;;;6.60;4.05;;;20.40;97.20;;;;;;5003961;28;20034;-70
2022/05/09 10:41:34;;;;;;;7.60;4.05;;;20.40;98.30;;;;;;5015986;28;20065;-70
2022/05/09 10:44:27;;;;;;;6.53;4.10;;;20.50;97.40;;;;;;5026903;28;20038;-69
2022/05/09 10:47:01;;;;;;;6.13;3.88;;;20.40;97.90;;;;;;5026477;28;20068;-70
2022/05/09 10:49:50;;;;;;;9.07;3.80;;;20.50;97.80;;;;;;5014410;28;20076;-70
2022/05/09 10:52:27;;;;;;;8.27;4.43;;;20.50;96.70;;;;;;5004220;28;20037;-69
2022/05/09 10:55:02;;;;;;;7.50;4.30;;;20.50;96.40;;;;;;5014979;28;20042;-69
2022/05/09 10:57:38;;;;;;;6.50;3.95;;;20.60;96.30;;;;;;5022048;28;20032;-70
2022/05/09 11:00:18;;;;;;;6.13;3.70;;;20.70;96.50;;;;;;5013124;28;20041;-70
2022/05/09 11:03:09;;;;;;;5.43;3.50;;;20.80;96.40;;;;;;5010619;28;20060;-70
2022/05/09 11:06:03;;;;;;;5.55;3.55;;;20.90;96.40;;;;;;5000186;28;20504;-70
2022/05/09 11:09:02;;;;;;;11.27;4.35;;;20.80;96.20;;;;;;5010009;28;20101;-70
2022/05/09 11:11:40;;;;;;;6.55;3.72;;;21.00;95.90;;;;;;5009312;28;20052;-70
2022/05/09 11:14:38;;;;;;;5.43;3.00;;;21.10;94.30;;;;;;5029939;28;20029;-69
2022/05/09 11:17:18;;;;;;;6.93;3.47;;;21.10;95.00;;;;;;5030122;28;20063;-69
2022/05/09 11:20:08;;;;;;;8.48;3.92;;;21.30;95.70;;;;;;5013505;28;20069;-69
2022/05/09 11:22:47;;;;;;;5.80;3.10;;;21.30;94.60;;;;;;5006814;28;20026;-71
2022/05/09 11:25:44;;;;;;;6.68;3.60;;;21.50;94.10;;;;;;5020853;28;20041;-69
2022/05/09 11:28:57;;;;;;;6.90;3.65;;;21.50;94.20;;;;;;5020784;28;20021;-69
2022/05/09 11:31:52;;;;;;;5.63;3.25;;;21.50;94.50;;;;;;5023298;28;20034;-69
2022/05/09 11:34:35;;;;;;;7.32;4.43;;;21.60;93.80;;;;;;4999942;28;20422;-69
2022/05/09 11:37:07;;;;;;;5.68;3.83;;;21.70;93.90;;;;;;5002435;28;20480;-69
2022/05/09 11:39:33;;;;;;;6.60;3.08;;;21.60;93.20;;;;;;5023138;28;20037;-69
2022/05/09 11:43:27;;;;;;;5.82;3.67;;;21.80;92.90;;;;;;5026230;28;20494;-69
2022/05/09 11:45:09;;;;;;;5.28;3.22;;;21.90;92.40;;;;;;5005430;28;20041;-69
2022/05/09 11:48:15;;;;;;;8.55;3.42;;;21.70;91.60;;;;;;5006995;28;20037;-69
2022/05/09 11:51:01;;;;;;;5.63;2.75;;;21.90;90.90;;;;;;5005665;28;20037;-69
2022/05/09 11:53:30;;;;;;;6.53;3.67;;;22.00;91.90;;;;;;5005402;28;20515;-69
2022/05/09 11:55:56;;;;;;;5.88;3.20;;;22.20;92.40;;;;;;5013907;28;20120;-69
2022/05/09 11:58:24;;;;;;;7.47;3.33;;;22.00;92.70;;;;;;5006847;28;20037;-69
2022/05/09 12:00:52;;;;;;;5.30;3.70;;;22.10;92.40;;;;;;5007841;28;20025;-69
2022/05/09 12:03:39;;;;;;;7.18;2.97;;;21.90;92.20;;;;;;5024760;28;20049;-69
2022/05/09 12:06:25;;;;;;;9.90;3.65;;;21.90;91.60;;;;;;5017405;28;20230;-69
2022/05/09 12:08:50;;;;;;;7.18;3.50;;;21.80;92.30;;;;;;5006602;28;20037;-69
2022/05/09 12:11:30;;;;;;;6.47;3.90;;;21.70;92.20;;;;;;5005822;28;20478;-69
2022/05/09 12:13:59;;;;;;;7.50;3.35;;;21.70;93.00;;;;;;5005822;28;20080;-68
2022/05/09 12:16:35;;;;;;;4.78;3.45;;;21.80;93.60;;;;;;5006903;28;20499;-69
2022/05/09 12:19:13;;;;;;;6.70;3.72;;;21.80;93.60;;;;;;4999806;28;20520;-69
2022/05/09 12:21:41;;;;;;;7.47;3.20;;;21.80;94.20;;;;;;5003849;28;20022;-68
2022/05/09 12:24:23;;;;;;;7.38;3.40;;;22.00;93.80;;;;;;4997872;28;20030;-69
2022/05/09 12:26:54;;;;;;;8.32;3.78;;;22.00;92.20;;;;;;5004241;28;20022;-69
2022/05/09 12:29:19;;;;;;;7.88;3.63;;;22.20;91.80;;;;;;5012153;28;20103;-69
2022/05/09 12:31:46;;;;;;;4.63;2.60;;;22.20;91.90;;;;;;5003450;28;20603;-68
2022/05/09 12:34:14;;;;;;;6.32;3.15;;;22.10;92.60;;;;;;4999741;28;20393;-68
2022/05/09 12:36:41;;;;;;;5.70;3.40;;;22.30;93.10;;;;;;5000512;28;20117;-69
2022/05/09 12:39:29;;;;;;;8.95;3.53;;;22.20;92.10;;;;;;5011704;28;20033;-69
2022/05/09 12:41:58;;;;;;;6.47;3.25;;;22.20;92.30;;;;;;5024759;28;20037;-68
2022/05/09 12:44:29;;;;;;;5.82;3.53;;;22.30;92.50;;;;;;5017494;28;20026;-69
2022/05/09 12:46:57;;;;;;;7.22;3.13;;;22.30;91.80;;;;;;5004818;28;20038;-69
2022/05/09 12:49:32;;;;;;;8.85;3.60;;;22.30;92.00;;;;;;5016620;28;20033;-69
2022/05/09 12:51:58;;;;;;;8.88;3.95;;;22.70;93.00;;;;;;5008973;28;20045;-69
2022/05/09 12:54:27;;;;;;;11.05;3.90;;;22.80;91.70;;;;;;5006864;28;20026;-69
2022/05/09 12:56:59;;;;;;;8.10;3.70;;;23.10;90.90;;;;;;5004707;28;20091;-69
2022/05/09 12:59:43;;;;;;;7.28;3.63;;;23.40;91.20;;;;;;5008743;28;20174;-69
2022/05/09 13:02:08;;;;;;;9.82;3.17;;;23.40;90.20;;;;;;5008051;28;20700;-68
2022/05/09 13:04:39;;;;;;;12.07;4.07;;;23.70;90.80;;;;;;5010483;28;20042;-69
2022/05/09 13:07:07;;;;;;;13.55;4.10;;;23.90;87.60;;;;;;5005039;28;20030;-69
2022/05/09 13:09:51;;;;;;;12.25;3.58;;;24.00;90.20;;;;;;5018752;28;20495;-69
2022/05/09 13:12:30;;;;;;;7.45;3.45;;;24.30;89.60;;;;;;5024092;28;20049;-68
2022/05/09 13:14:59;;;;;;;12.32;4.18;;;24.00;86.60;;;;;;5017310;28;20060;-69